Coal Mine Mesa, Arizona
Current Conditions -  °F | °C
As of 9:54 PM on Tuesday 25 Nov 2014 (Local Time) from KGCN Reporting Station
Clear Clear  
Wind Chill: 21°   Ceiling: Unl
Heat Index: 21°   Visibility: 10mi
Dew Point:   Wind: 0mph
Humidity: 48%   Direction: NA
Pressure: 30.45"   Gusts: NA
Location:  35.9808°N, 111.359°W
Report Text: KGCN 260454Z AUTO 00000KT 10SM CLR M06/M16 A3045 RMK AO2 SLP312 T10611156
Loading
Personal Weather Stations






























Interactive Weather Map New forecast layout! Learn more

10-Day Weather Forecast

Advertisements
Track Severe Weather on mobile